Bettles Airport Bettles US
ICAO: PABT
IATA:
Category: Medium
Scheduled Services:

Elevation: 647 ft
TransAlt. 18000 ft.

Airport Communications:
ASOS:135.45
ANCHORAGE CNTR:124.6
CTAF:122.9
FAIRBANKS RDO:122.2
TWEB:116

PABT Zoom In..

Runways:

(A) RW 01 length 5190 ft width 150 ft
LOC 108.70 / hdg 12

(B) RW 19 length 5190 ft width 150 ft
LOC 108.70 / hdg 192

Location; PABT
Day. 15 / Time. 22.53 Zulu
* Altimeter: 29.70
* Temperature: 18° c. 64.4°f.
* Wind from: 230° Speed 06 kn with Gusts up to 14 kn.
Dewpoint: 06° c.
Visibility: 10 Statute Miles.
Clouds: Scattered 4800 ft.
Clouds: Scattered 1000 ft.
Clouds: Broken 19000 ft.

PABT 152253Z 23006G14KT 10SM SCT048 SCT100 BKN190 18/06 A2970 RMK AO2 SLP065 T01780061 $


Wind From 230°
Speed 06 kn.

 
 
jpsmedia.com for Web Design worldairports.se 2018   terms of use